Time;durP1;ratioP1;P1;durP2;ratioP2;P2;SDS_P1;SDS_P2;PMS_P1;PMS_P2;Temp;Humidity;BMP_temperature;BMP_pressure;BME280_temperature;BME280_humidity;BME280_pressure;Samples;Min_cycle;Max_cycle;Signal;HPM_P1;HPM_P2
2023/09/21 00:03:49;;;;;;;;;;;19.70;99.90;;;;;;8377014;28;19929;-69
2023/09/21 00:07:51;;;;;;;;;;;19.70;99.90;;;;;;8376995;28;19928;-69
2023/09/21 00:11:54;;;;;;;;;;;19.60;99.90;;;;;;8370237;28;19935;-70
2023/09/21 00:15:57;;;;;;;;;;;19.60;99.90;;;;;;8374839;28;19931;-69
2023/09/21 00:19:59;;;;;;;;;;;19.60;99.90;;;;;;8368825;28;19931;-69
2023/09/21 00:24:15;;;;;;;;;;;19.60;99.90;;;;;;8372078;28;19932;-70
2023/09/21 00:28:19;;;;;;;;;;;19.60;99.90;;;;;;8377889;28;19931;-70
2023/09/21 00:32:21;;;;;;;;;;;19.60;99.90;;;;;;8378114;28;19936;-69
2023/09/21 00:36:24;;;;;;;;;;;19.60;99.90;;;;;;8373555;28;19932;-70
2023/09/21 00:40:25;;;;;;;;;;;19.60;99.90;;;;;;8373884;28;19951;-70
2023/09/21 00:44:27;;;;;;;;;;;19.60;99.90;;;;;;8371148;28;20011;-70
2023/09/21 00:48:42;;;;;;;;;;;19.60;99.90;;;;;;8371310;28;19971;-69
2023/09/21 00:52:45;;;;;;;;;;;19.60;99.90;;;;;;8374766;28;20066;-69
2023/09/21 00:56:48;;;;;;;;;;;19.60;99.90;;;;;;8367232;28;19963;-69
2023/09/21 01:00:51;;;;;;;;;;;19.50;99.90;;;;;;8378101;28;20877;-69
2023/09/21 01:04:54;;;;;;;;;;;19.50;99.90;;;;;;8377902;28;19935;-70
2023/09/21 01:08:56;;;;;;;;;;;19.50;99.90;;;;;;8363569;28;20328;-70
2023/09/21 01:12:58;;;;;;;;;;;19.50;99.90;;;;;;8372416;28;19950;-70
2023/09/21 01:17:00;;;;;;;;;;;19.50;99.90;;;;;;8379826;28;19928;-70
2023/09/21 01:21:06;;;;;;;;;;;19.50;99.90;;;;;;8375239;28;19929;-70
2023/09/21 01:25:08;;;;;;;;;;;19.40;99.90;;;;;;8370730;28;19999;-70
2023/09/21 01:29:14;;;;;;;;;;;19.40;99.90;;;;;;8369201;28;19925;-69
2023/09/21 01:33:16;;;;;;;;;;;19.40;99.90;;;;;;8372701;28;19925;-69
2023/09/21 01:37:17;;;;;;;;;;;19.40;99.90;;;;;;8377568;28;19924;-70
2023/09/21 01:41:19;;;;;;;;;;;19.40;99.90;;;;;;8365296;28;20348;-69
2023/09/21 01:45:21;;;;;;;;;;;19.30;99.90;;;;;;8374738;28;19928;-70
2023/09/21 01:49:23;;;;;;;;;;;19.30;99.90;;;;;;8363457;28;22291;-70
2023/09/21 01:53:25;;;;;;;;;;;19.30;99.90;;;;;;8368065;28;19931;-69
2023/09/21 01:57:27;;;;;;;;;;;19.30;99.90;;;;;;8370667;28;19925;-69
2023/09/21 02:01:29;;;;;;;;;;;19.30;99.90;;;;;;8369870;28;20427;-69
2023/09/21 02:05:30;;;;;;;;;;;19.30;99.90;;;;;;8368765;28;19950;-70
2023/09/21 02:09:34;;;;;;;;;;;19.30;99.90;;;;;;8367719;28;19925;-70
2023/09/21 02:13:35;;;;;;;;;;;19.30;99.90;;;;;;8378000;28;19932;-69
2023/09/21 02:17:41;;;;;;;;;;;19.30;99.90;;;;;;8373156;28;19924;-70
2023/09/21 02:21:43;;;;;;;;;;;19.30;99.90;;;;;;8377292;28;19928;-69
2023/09/21 02:25:45;;;;;;;;;;;19.20;99.90;;;;;;8367034;28;19936;-69
2023/09/21 02:29:46;;;;;;;;;;;19.20;99.90;;;;;;8366263;28;19931;-69
2023/09/21 02:33:48;;;;;;;;;;;19.20;99.90;;;;;;8371033;28;19936;-70
2023/09/21 02:37:51;;;;;;;;;;;19.20;99.90;;;;;;8378589;28;19925;-69
2023/09/21 02:41:53;;;;;;;;;;;19.20;99.90;;;;;;8360371;28;19935;-69
2023/09/21 02:45:55;;;;;;;;;;;19.10;99.90;;;;;;8365134;28;19932;-70
2023/09/21 02:49:57;;;;;;;;;;;19.10;99.90;;;;;;8367649;28;20311;-69
2023/09/21 02:54:00;;;;;;;;;;;19.10;99.90;;;;;;8364868;28;19929;-70
2023/09/21 02:58:05;;;;;;;;;;;19.10;99.90;;;;;;8375349;28;20334;-70
2023/09/21 03:02:09;;;;;;;;;;;19.10;99.90;;;;;;8365914;28;19931;-69
2023/09/21 03:06:12;;;;;;;;;;;19.20;99.90;;;;;;8372592;28;19952;-70
2023/09/21 03:10:16;;;;;;;;;;;19.20;99.90;;;;;;8367600;28;19928;-69
2023/09/21 03:14:18;;;;;;;;;;;19.20;99.90;;;;;;8362341;28;19925;-70
2023/09/21 03:18:21;;;;;;;;;;;19.20;99.90;;;;;;8364161;28;19947;-70
2023/09/21 03:22:23;;;;;;;;;;;19.20;99.90;;;;;;8363167;28;20380;-70
2023/09/21 03:26:25;;;;;;;;;;;19.20;99.90;;;;;;8374485;28;19924;-70
2023/09/21 03:30:27;;;;;;;;;;;19.20;99.90;;;;;;8365688;28;19955;-70
2023/09/21 03:34:28;;;;;;;;;;;19.20;99.90;;;;;;8366741;28;19932;-70
2023/09/21 03:38:30;;;;;;;;;;;19.10;99.90;;;;;;8378879;28;19924;-70
2023/09/21 03:42:32;;;;;;;;;;;19.10;99.90;;;;;;8368662;28;19929;-70
2023/09/21 03:46:34;;;;;;;;;;;19.10;99.90;;;;;;8346358;28;20399;-70
2023/09/21 03:50:36;;;;;;;;;;;19.10;99.90;;;;;;8370762;28;19925;-70
2023/09/21 03:54:39;;;;;;;;;;;19.10;99.90;;;;;;8369761;28;19928;-70
2023/09/21 03:58:41;;;;;;;;;;;19.10;99.90;;;;;;8342724;28;20407;-70
2023/09/21 04:02:45;;;;;;;;;;;19.10;99.90;;;;;;8367694;28;19924;-70
2023/09/21 04:06:47;;;;;;;;;;;19.10;99.90;;;;;;8378750;28;20334;-70
2023/09/21 04:10:49;;;;;;;;;;;19.10;99.90;;;;;;8383184;28;19925;-70
2023/09/21 04:14:51;;;;;;;;;;;19.00;99.90;;;;;;8378247;28;19971;-70
2023/09/21 04:18:53;;;;;;;;;;;19.00;99.90;;;;;;8367917;28;19924;-70
2023/09/21 04:22:55;;;;;;;;;;;19.00;99.90;;;;;;8381676;28;19998;-70
2023/09/21 04:26:57;;;;;;;;;;;19.00;99.90;;;;;;8371530;28;19924;-69
2023/09/21 04:31:02;;;;;;;;;;;19.00;99.90;;;;;;8376944;28;19936;-70
2023/09/21 04:35:07;;;;;;;;;;;19.00;99.90;;;;;;8373456;28;19932;-70
2023/09/21 04:39:12;;;;;;;;;;;19.00;99.90;;;;;;8367246;28;19929;-69
2023/09/21 04:43:16;;;;;;;;;;;18.90;99.90;;;;;;8375654;28;19928;-70
2023/09/21 04:47:17;;;;;;;;;;;18.90;99.90;;;;;;8378394;28;19925;-70
2023/09/21 04:51:19;;;;;;;;;;;18.90;99.90;;;;;;8364970;28;19931;-70
2023/09/21 04:55:20;;;;;;;;;;;18.80;99.90;;;;;;8378859;28;20330;-70
2023/09/21 04:59:23;;;;;;;;;;;18.80;99.90;;;;;;8379419;28;19967;-70
2023/09/21 05:03:25;;;;;;;;;;;18.80;99.90;;;;;;8372010;28;19924;-70
2023/09/21 05:07:27;;;;;;;;;;;18.80;99.90;;;;;;8369165;28;20433;-70
2023/09/21 05:11:33;;;;;;;;;;;18.80;99.90;;;;;;8374580;28;19936;-70
2023/09/21 05:15:35;;;;;;;;;;;18.70;99.90;;;;;;8378210;28;19963;-70
2023/09/21 05:19:37;;;;;;;;;;;18.70;99.90;;;;;;8383298;28;19924;-70
2023/09/21 05:23:45;;;;;;;;;;;18.70;99.90;;;;;;8378066;28;19997;-69
2023/09/21 05:27:47;;;;;;;;;;;18.70;99.90;;;;;;8369002;28;20362;-70
2023/09/21 05:31:49;;;;;;;;;;;18.70;99.90;;;;;;8380282;28;19931;-70
2023/09/21 05:35:53;;;;;;;;;;;18.80;99.90;;;;;;8373497;28;19924;-70
2023/09/21 05:39:55;;;;;;;;;;;18.80;99.90;;;;;;8383351;28;20614;-70
2023/09/21 05:43:57;;;;;;;;;;;18.80;99.90;;;;;;8378862;28;20333;-70
2023/09/21 05:47:58;;;;;;;;;;;18.80;99.90;;;;;;8382938;28;19928;-70
2023/09/21 05:52:03;;;;;;;;;;;18.80;99.90;;;;;;8386496;28;20024;-69
2023/09/21 05:56:05;;;;;;;;;;;18.80;99.90;;;;;;8379642;28;20003;-69
2023/09/21 06:00:08;;;;;;;;;;;18.70;99.90;;;;;;8378658;28;19924;-69
2023/09/21 06:04:12;;;;;;;;;;;18.70;99.90;;;;;;8384719;28;19951;-70
2023/09/21 06:08:14;;;;;;;;;;;18.60;99.90;;;;;;8370254;28;19967;-70
2023/09/21 06:12:15;;;;;;;;;;;18.60;99.90;;;;;;8367040;28;20372;-69
2023/09/21 06:16:17;;;;;;;;;;;18.50;99.90;;;;;;8347685;28;19925;-70
2023/09/21 06:20:19;;;;;;;;;;;18.40;99.90;;;;;;8372210;28;19932;-70
2023/09/21 06:24:24;;;;;;;;;;;18.40;99.90;;;;;;8369589;28;20376;-70
2023/09/21 06:28:28;;;;;;;;;;;18.40;99.90;;;;;;8371230;28;21323;-70
2023/09/21 06:32:30;;;;;;;;;;;18.30;99.90;;;;;;8368908;28;19937;-70
2023/09/21 06:36:33;;;;;;;;;;;18.30;99.90;;;;;;8368993;28;19936;-70
2023/09/21 06:40:38;;;;;;;;;;;18.30;99.90;;;;;;8367776;28;19925;-70
2023/09/21 06:44:40;;;;;;;;;;;18.20;99.90;;;;;;8364634;28;19928;-70
2023/09/21 06:48:41;;;;;;;;;;;18.20;99.90;;;;;;8372186;28;20277;-70
2023/09/21 06:52:46;;;;;;;;;;;18.20;99.90;;;;;;8366248;28;20296;-70
2023/09/21 06:56:47;;;;;;;;;;;18.20;99.90;;;;;;8351238;28;20063;-70
2023/09/21 07:00:49;;;;;;;;;;;18.20;99.90;;;;;;8379692;28;20015;-70
2023/09/21 07:04:52;;;;;;;;;;;18.20;99.90;;;;;;8369146;28;19925;-70
2023/09/21 07:08:53;;;;;;;;;;;18.10;99.90;;;;;;8356094;28;19932;-70
2023/09/21 07:12:55;;;;;;;;;;;18.00;99.90;;;;;;8364182;28;19935;-71
2023/09/21 07:16:57;;;;;;;;;;;17.90;99.90;;;;;;8373271;28;19925;-70
2023/09/21 07:20:58;;;;;;;;;;;17.70;99.90;;;;;;8368637;28;20360;-71
2023/09/21 07:25:00;;;;;;;;;;;17.50;99.90;;;;;;8366568;28;19950;-70
2023/09/21 07:29:05;;;;;;;;;;;17.30;99.90;;;;;;8347838;28;19929;-71
2023/09/21 07:33:08;;;;;;;;;;;17.20;99.90;;;;;;8363598;28;20067;-71
2023/09/21 07:37:12;;;;;;;;;;;17.10;99.90;;;;;;8374797;28;19925;-71
2023/09/21 07:41:14;;;;;;;;;;;17.00;99.90;;;;;;8382493;28;20257;-70
2023/09/21 07:45:16;;;;;;;;;;;17.00;99.90;;;;;;8371989;28;19929;-71
2023/09/21 07:54:22;;;;;;;;;;;17.00;99.90;;;;;;8372754;28;19974;-71
2023/09/21 07:58:23;;;;;;;;;;;17.00;99.90;;;;;;8374373;28;19928;-71
2023/09/21 08:02:25;;;;;;;;;;;17.00;99.90;;;;;;8374895;28;19931;-71
2023/09/21 08:06:28;;;;;;;;;;;17.10;99.90;;;;;;8374405;28;19924;-71
2023/09/21 08:10:32;;;;;;;;;;;17.10;99.90;;;;;;8372579;28;19924;-71
2023/09/21 08:14:34;;;;;;;;;;;17.20;99.90;;;;;;8374991;28;19929;-71
2023/09/21 08:18:36;;;;;;;;;;;17.10;99.90;;;;;;8372419;28;19933;-71
2023/09/21 08:22:38;;;;;;;;;;;17.20;99.90;;;;;;8380345;28;19935;-71
2023/09/21 08:26:40;;;;;;;;;;;17.30;99.90;;;;;;8386824;28;19928;-71
2023/09/21 08:30:42;;;;;;;;;;;17.30;99.90;;;;;;8376414;28;19932;-71
2023/09/21 08:34:44;;;;;;;;;;;17.30;99.90;;;;;;8355979;28;20436;-70
2023/09/21 08:38:46;;;;;;;;;;;17.30;99.90;;;;;;8374487;28;19924;-71
2023/09/21 08:42:51;;;;;;;;;;;17.40;99.90;;;;;;8372133;28;19986;-71
2023/09/21 08:46:54;;;;;;;;;;;17.40;99.90;;;;;;8369634;28;19925;-71
2023/09/21 08:50:57;;;;;;;;;;;17.30;99.90;;;;;;8376209;28;19924;-71
2023/09/21 08:55:00;;;;;;;;;;;17.30;99.90;;;;;;8381000;28;20248;-71
2023/09/21 08:59:03;;;;;;;;;;;17.30;99.90;;;;;;8367793;28;19935;-71
2023/09/21 09:03:05;;;;;;;;;;;17.20;99.90;;;;;;8375062;28;19924;-70
2023/09/21 09:07:07;;;;;;;;;;;17.30;99.90;;;;;;8375238;28;19931;-71
2023/09/21 09:11:28;;;;;;;;;;;17.30;99.90;;;;;;8376178;28;19925;-71
2023/09/21 09:15:35;;;;;;;;;;;17.30;99.90;;;;;;8374683;28;19937;-71
2023/09/21 09:19:37;;;;;;;;;;;17.20;99.90;;;;;;8373453;28;19970;-70
2023/09/21 09:23:41;;;;;;;;;;;17.20;99.90;;;;;;8375952;28;19932;-70
2023/09/21 09:27:45;;;;;;;;;;;17.10;99.90;;;;;;8369373;28;19932;-70
2023/09/21 09:31:47;;;;;;;;;;;17.00;99.90;;;;;;8368021;28;19984;-70
2023/09/21 09:35:51;;;;;;;;;;;17.00;99.90;;;;;;8367901;28;21144;-70
2023/09/21 09:39:53;;;;;;;;;;;16.90;99.90;;;;;;8370127;28;19979;-71
2023/09/21 09:43:58;;;;;;;;;;;16.80;99.90;;;;;;8365314;28;19924;-70
2023/09/21 09:48:03;;;;;;;;;;;16.80;99.90;;;;;;8368102;28;19955;-70
2023/09/21 10:02:28;;;;;;;;;;;16.90;99.90;;;;;;8375590;28;20003;-71
2023/09/21 10:06:30;;;;;;;;;;;16.90;99.90;;;;;;8370958;28;20371;-71
2023/09/21 10:10:33;;;;;;;;;;;16.90;99.90;;;;;;8376997;28;19964;-71
2023/09/21 10:14:41;;;;;;;;;;;16.80;99.90;;;;;;8371972;28;20384;-71
2023/09/21 10:18:43;;;;;;;;;;;16.90;99.90;;;;;;8369582;28;19932;-71
2023/09/21 10:22:46;;;;;;;;;;;16.80;99.90;;;;;;8370245;28;19986;-71
2023/09/21 10:26:49;;;;;;;;;;;16.70;99.90;;;;;;8372690;28;20058;-71
2023/09/21 10:30:52;;;;;;;;;;;16.60;99.90;;;;;;8376042;28;19932;-70
2023/09/21 10:34:55;;;;;;;;;;;16.50;99.90;;;;;;8361043;28;19966;-71
2023/09/21 10:39:13;;;;;;;;;;;16.50;99.90;;;;;;8372871;28;20003;-71
2023/09/21 10:43:33;;;;;;;;;;;16.50;99.90;;;;;;8371008;28;20368;-71
2023/09/21 10:47:47;;;;;;;;;;;16.50;99.90;;;;;;8379777;28;19925;-71
2023/09/21 10:51:51;;;;;;;;;;;16.60;99.90;;;;;;8355825;28;19928;-71
2023/09/21 10:55:53;;;;;;;;;;;16.60;99.90;;;;;;8372442;28;19925;-72
2023/09/21 10:59:59;;;;;;;;;;;16.60;99.90;;;;;;8368979;28;20449;-71
2023/09/21 11:04:14;;;;;;;;;;;16.60;99.90;;;;;;8361556;28;19959;-71
2023/09/21 11:08:15;;;;;;;;;;;16.70;99.90;;;;;;8362928;28;19947;-72
2023/09/21 11:12:17;;;;;;;;;;;16.80;99.90;;;;;;8360613;28;20288;-72
2023/09/21 11:16:19;;;;;;;;;;;16.80;99.90;;;;;;8375182;28;19932;-72
2023/09/21 11:20:23;;;;;;;;;;;16.80;99.90;;;;;;8379827;28;20231;-71
2023/09/21 11:24:25;;;;;;;;;;;16.80;99.90;;;;;;8362464;28;20359;-71
2023/09/21 11:28:27;;;;;;;;;;;16.90;99.90;;;;;;8370954;28;19925;-71
2023/09/21 11:32:29;;;;;;;;;;;16.90;99.90;;;;;;8383174;28;19935;-71
2023/09/21 11:36:31;;;;;;;;;;;16.90;99.90;;;;;;8385615;28;19929;-71
2023/09/21 11:40:33;;;;;;;;;;;16.90;99.90;;;;;;8375648;28;20364;-71
2023/09/21 11:44:35;;;;;;;;;;;17.00;99.90;;;;;;8355609;28;19924;-71
2023/09/21 11:48:38;;;;;;;;;;;17.00;99.90;;;;;;8363371;28;20021;-71
2023/09/21 11:52:39;;;;;;;;;;;16.90;99.90;;;;;;8387256;28;20388;-71
2023/09/21 11:56:43;;;;;;;;;;;16.90;99.90;;;;;;8373601;28;19924;-71
2023/09/21 12:04:53;;;;;;;;;;;16.90;99.90;;;;;;8387906;28;20297;-71
2023/09/21 12:08:54;;;;;;;;;;;17.00;99.90;;;;;;8360025;28;20284;-71
2023/09/21 12:12:57;;;;;;;;;;;17.00;99.90;;;;;;8384283;28;19936;-71
2023/09/21 12:17:02;;;;;;;;;;;17.00;99.90;;;;;;8374475;28;19932;-71
2023/09/21 12:21:04;;;;;;;;;;;17.00;99.90;;;;;;8371671;28;19924;-72
2023/09/21 12:25:06;;;;;;;;;;;17.00;99.90;;;;;;8369376;28;19925;-71
2023/09/21 12:29:10;;;;;;;;;;;16.90;99.90;;;;;;8368930;28;20280;-73
2023/09/21 12:33:15;;;;;;;;;;;16.90;99.90;;;;;;8377268;28;19932;-71
2023/09/21 12:37:31;;;;;;;;;;;17.00;99.90;;;;;;8369000;28;20273;-71
2023/09/21 12:41:33;;;;;;;;;;;16.90;99.90;;;;;;8378682;28;19976;-72
2023/09/21 12:45:34;;;;;;;;;;;17.00;99.90;;;;;;8355949;28;20261;-71
2023/09/21 12:49:36;;;;;;;;;;;17.00;99.90;;;;;;8382624;28;19970;-72
2023/09/21 12:53:38;;;;;;;;;;;17.00;99.90;;;;;;8370129;28;19924;-71
2023/09/21 12:57:40;;;;;;;;;;;17.00;99.90;;;;;;8376666;28;19932;-71
2023/09/21 13:01:42;;;;;;;;;;;17.00;99.90;;;;;;8366979;28;19960;-71
2023/09/21 13:05:45;;;;;;;;;;;17.00;99.90;;;;;;8376402;28;19932;-72
2023/09/21 13:09:47;;;;;;;;;;;17.00;99.90;;;;;;8377528;28;20289;-71
2023/09/21 13:13:53;;;;;;;;;;;17.10;99.90;;;;;;8371981;28;19925;-72
2023/09/21 13:17:55;;;;;;;;;;;17.00;99.90;;;;;;8375188;28;19929;-72
2023/09/21 13:21:57;;;;;;;;;;;17.00;99.90;;;;;;8365726;28;19934;-72
2023/09/21 13:25:59;;;;;;;;;;;17.00;99.90;;;;;;8383855;28;19928;-71
2023/09/21 13:30:00;;;;;;;;;;;17.00;99.90;;;;;;8383098;28;19936;-71
2023/09/21 13:34:02;;;;;;;;;;;16.90;99.90;;;;;;8379615;28;19924;-72
2023/09/21 13:38:04;;;;;;;;;;;17.00;99.90;;;;;;8381957;28;19970;-71
2023/09/21 13:42:05;;;;;;;;;;;17.00;99.90;;;;;;8377241;28;19928;-72
2023/09/21 13:46:09;;;;;;;;;;;17.00;99.90;;;;;;8380735;28;19932;-71
2023/09/21 13:50:11;;;;;;;;;;;17.00;99.90;;;;;;8360028;28;19983;-71
2023/09/21 13:54:13;;;;;;;;;;;17.00;99.90;;;;;;8380874;28;19928;-71
2023/09/21 13:58:15;;;;;;;;;;;17.00;99.90;;;;;;8379272;28;20011;-71
2023/09/21 14:02:17;;;;;;;;;;;16.90;99.90;;;;;;8354675;28;19928;-72
2023/09/21 14:06:21;;;;;;;;;;;16.90;99.90;;;;;;8360933;28;19970;-71
2023/09/21 14:10:23;;;;;;;;;;;16.90;99.90;;;;;;8357505;28;19924;-71
2023/09/21 14:14:25;;;;;;;;;;;16.90;99.90;;;;;;8361372;28;19962;-71
2023/09/21 14:18:27;;;;;;;;;;;16.90;99.90;;;;;;8351723;28;19972;-71
2023/09/21 14:22:29;;;;;;;;;;;17.00;99.90;;;;;;8369483;28;19979;-71
2023/09/21 14:26:31;;;;;;;;;;;16.90;99.90;;;;;;8370485;28;19928;-71
2023/09/21 14:30:32;;;;;;;;;;;16.90;99.90;;;;;;8376472;28;19984;-71
2023/09/21 14:34:35;;;;;;;;;;;16.90;99.90;;;;;;8363727;28;19931;-71
2023/09/21 14:38:36;;;;;;;;;;;17.00;99.90;;;;;;8376729;28;19986;-71
2023/09/21 14:42:38;;;;;;;;;;;16.90;99.90;;;;;;8373077;28;19925;-71
2023/09/21 14:46:41;;;;;;;;;;;16.90;99.90;;;;;;8360043;28;19932;-71
2023/09/21 14:50:42;;;;;;;;;;;16.90;99.90;;;;;;8375544;28;19924;-71
2023/09/21 14:54:44;;;;;;;;;;;16.90;99.90;;;;;;8375365;28;19925;-71
2023/09/21 14:58:46;;;;;;;;;;;17.00;99.90;;;;;;8368454;28;19971;-71
2023/09/21 15:02:51;;;;;;;;;;;17.00;99.90;;;;;;8378805;28;19932;-71
2023/09/21 15:06:53;;;;;;;;;;;17.00;99.90;;;;;;8376175;28;19951;-71
2023/09/21 15:10:54;;;;;;;;;;;17.00;99.90;;;;;;8370185;28;19925;-71
2023/09/21 15:14:56;;;;;;;;;;;17.00;99.90;;;;;;8376491;28;19925;-71
2023/09/21 15:18:58;;;;;;;;;;;16.90;99.90;;;;;;8370835;28;19928;-71
2023/09/21 15:23:00;;;;;;;;;;;16.90;99.90;;;;;;8367645;28;19925;-71
2023/09/21 15:27:02;;;;;;;;;;;16.80;99.90;;;;;;8352126;28;19945;-71
2023/09/21 15:31:04;;;;;;;;;;;16.90;99.90;;;;;;8365852;28;19925;-71
2023/09/21 15:35:06;;;;;;;;;;;16.80;99.90;;;;;;8376207;28;19986;-71
2023/09/21 15:39:07;;;;;;;;;;;16.80;99.90;;;;;;8371262;28;19960;-71
2023/09/21 15:43:09;;;;;;;;;;;16.80;99.90;;;;;;8365702;28;20737;-71
2023/09/21 15:47:11;;;;;;;;;;;16.80;99.90;;;;;;8382208;28;19931;-71
2023/09/21 15:51:13;;;;;;;;;;;16.90;99.90;;;;;;8367354;28;20367;-71
2023/09/21 15:55:14;;;;;;;;;;;16.90;99.90;;;;;;8377914;28;19986;-71
2023/09/21 15:59:16;;;;;;;;;;;16.90;99.90;;;;;;8371859;28;20291;-71
2023/09/21 16:03:18;;;;;;;;;;;16.90;99.90;;;;;;8372165;28;19935;-71
2023/09/21 16:07:20;;;;;;;;;;;16.90;99.90;;;;;;8379302;28;20388;-71
2023/09/21 16:11:21;;;;;;;;;;;16.90;99.90;;;;;;8373465;28;19925;-71
2023/09/21 16:15:23;;;;;;;;;;;16.90;99.90;;;;;;8378995;28;19932;-71
2023/09/21 16:19:25;;;;;;;;;;;16.90;99.90;;;;;;8386176;28;19939;-71
2023/09/21 16:23:27;;;;;;;;;;;16.90;99.90;;;;;;8378635;28;19924;-71
2023/09/21 16:27:31;;;;;;;;;;;16.90;99.90;;;;;;8371344;28;20367;-71
2023/09/21 16:31:33;;;;;;;;;;;16.90;99.90;;;;;;8380966;28;20375;-71
2023/09/21 16:35:37;;;;;;;;;;;16.90;99.90;;;;;;8379108;28;19940;-71
2023/09/21 16:39:39;;;;;;;;;;;16.80;99.90;;;;;;8376041;28;19925;-71
2023/09/21 16:43:41;;;;;;;;;;;16.90;99.90;;;;;;8375910;28;19932;-71
2023/09/21 16:47:43;;;;;;;;;;;16.90;99.90;;;;;;8378145;28;19924;-71
2023/09/21 16:51:45;;;;;;;;;;;16.90;99.90;;;;;;8375478;28;19924;-71
2023/09/21 16:55:47;;;;;;;;;;;16.90;99.90;;;;;;8380433;28;19924;-71
2023/09/21 16:59:49;;;;;;;;;;;16.90;99.90;;;;;;8358282;28;19970;-71
2023/09/21 17:03:50;;;;;;;;;;;16.90;99.90;;;;;;8370385;28;19924;-71
2023/09/21 17:07:52;;;;;;;;;;;16.90;99.90;;;;;;8381850;28;19925;-71
2023/09/21 17:11:55;;;;;;;;;;;16.90;99.90;;;;;;8362140;28;19928;-71
2023/09/21 17:15:56;;;;;;;;;;;16.80;99.90;;;;;;8376173;28;20368;-71
2023/09/21 17:19:58;;;;;;;;;;;16.70;99.90;;;;;;8372078;28;20043;-71
2023/09/21 17:24:00;;;;;;;;;;;16.80;99.90;;;;;;8375832;28;20371;-71
2023/09/21 17:28:02;;;;;;;;;;;16.80;99.90;;;;;;8371722;28;20288;-71
2023/09/21 17:32:04;;;;;;;;;;;16.70;99.90;;;;;;8356592;28;19940;-71
2023/09/21 17:36:06;;;;;;;;;;;16.70;99.90;;;;;;8378417;28;20468;-71
2023/09/21 17:40:11;;;;;;;;;;;16.70;99.90;;;;;;8370383;28;20041;-71
2023/09/21 17:44:13;;;;;;;;;;;16.70;99.90;;;;;;8372302;28;19975;-71
2023/09/21 17:48:15;;;;;;;;;;;16.70;99.90;;;;;;8384022;28;19925;-71
2023/09/21 17:52:37;;;;;;;;;;;16.70;99.90;;;;;;8375443;28;19929;-70
2023/09/21 17:56:39;;;;;;;;;;;16.70;99.90;;;;;;8373236;28;20402;-70
2023/09/21 18:00:41;;;;;;;;;;;16.70;99.90;;;;;;8375524;28;19955;-70
2023/09/21 18:04:43;;;;;;;;;;;16.70;99.90;;;;;;8378590;28;19925;-70
2023/09/21 18:08:45;;;;;;;;;;;16.70;99.90;;;;;;8379636;28;19925;-71
2023/09/21 18:22:53;;;;;;;;;;;16.70;99.90;;;;;;8368302;28;19923;-71
2023/09/21 18:26:55;;;;;;;;;;;16.60;99.90;;;;;;8372048;28;20318;-71
2023/09/21 18:30:56;;;;;;;;;;;16.60;99.90;;;;;;8371267;28;20196;-71
2023/09/21 18:34:58;;;;;;;;;;;16.60;99.90;;;;;;8374859;28;19939;-70
2023/09/21 18:39:00;;;;;;;;;;;16.60;99.90;;;;;;8377145;28;19929;-71
2023/09/21 18:48:05;;;;;;;;;;;16.60;99.90;;;;;;8371438;28;20026;-71
2023/09/21 19:07:17;;;;;;;;;;;16.60;99.90;;;;;;8374066;28;19965;-71
2023/09/21 19:11:19;;;;;;;;;;;16.60;99.90;;;;;;8376125;28;19932;-70
2023/09/21 19:15:39;;;;;;;;;;;16.60;99.90;;;;;;8355167;28;19947;-70
2023/09/21 19:19:41;;;;;;;;;;;16.60;99.90;;;;;;8375372;28;20486;-71
2023/09/21 19:23:42;;;;;;;;;;;16.60;99.90;;;;;;8365307;28;20379;-70
2023/09/21 19:27:44;;;;;;;;;;;16.60;99.90;;;;;;8370683;28;19928;-70
2023/09/21 19:36:49;;;;;;;;;;;16.50;99.90;;;;;;8356768;28;19924;-71
2023/09/21 19:40:51;;;;;;;;;;;16.50;99.90;;;;;;8381922;28;20031;-71
2023/09/21 19:44:52;;;;;;;;;;;16.50;99.90;;;;;;8375542;28;19928;-71
2023/09/21 19:48:54;;;;;;;;;;;16.40;99.90;;;;;;8383307;28;20334;-71
2023/09/21 19:52:56;;;;;;;;;;;16.40;99.90;;;;;;8377623;28;19925;-70
2023/09/21 19:56:58;;;;;;;;;;;16.40;99.90;;;;;;8381537;28;19931;-71
2023/09/21 20:01:00;;;;;;;;;;;16.40;99.90;;;;;;8370095;28;19925;-71
2023/09/21 20:05:01;;;;;;;;;;;16.40;99.90;;;;;;8379737;28;19928;-71
2023/09/21 20:09:06;;;;;;;;;;;16.40;99.90;;;;;;8388047;28;19982;-71
2023/09/21 20:13:08;;;;;;;;;;;16.40;99.90;;;;;;8385308;28;19924;-71
2023/09/21 20:17:10;;;;;;;;;;;16.40;99.90;;;;;;8378609;28;19924;-71
2023/09/21 20:21:11;;;;;;;;;;;16.40;99.90;;;;;;8381390;28;19982;-71
2023/09/21 20:25:13;;;;;;;;;;;16.30;99.90;;;;;;8372969;28;19982;-71
2023/09/21 20:29:15;;;;;;;;;;;16.30;99.90;;;;;;8370482;28;19924;-71
2023/09/21 20:33:17;;;;;;;;;;;16.30;99.90;;;;;;8381947;28;19969;-71
2023/09/21 20:37:22;;;;;;;;;;;16.30;99.90;;;;;;8374385;28;19982;-71
2023/09/21 20:46:49;;;;;;;;;;;16.30;99.90;;;;;;8380577;28;20000;-71
2023/09/21 20:50:51;;;;;;;;;;;16.30;99.90;;;;;;8380776;28;20015;-71
2023/09/21 20:54:53;;;;;;;;;;;16.30;99.90;;;;;;8380265;28;19928;-70
2023/09/21 20:58:55;;;;;;;;;;;16.20;99.90;;;;;;8357404;28;20011;-70
2023/09/21 21:02:56;;;;;;;;;;;16.20;99.90;;;;;;8382055;28;19925;-70
2023/09/21 21:06:59;;;;;;;;;;;16.20;99.90;;;;;;8378954;28;20288;-70
2023/09/21 21:11:01;;;;;;;;;;;16.20;99.90;;;;;;8379801;28;19940;-70
2023/09/21 21:15:03;;;;;;;;;;;16.10;99.90;;;;;;8371848;28;19928;-70
2023/09/21 21:19:04;;;;;;;;;;;16.10;99.90;;;;;;8371798;28;20419;-70
2023/09/21 21:23:06;;;;;;;;;;;16.10;99.90;;;;;;8370369;28;19929;-70
2023/09/21 21:27:08;;;;;;;;;;;16.00;99.90;;;;;;8381630;28;20384;-70
2023/09/21 21:31:09;;;;;;;;;;;16.00;99.90;;;;;;8378625;28;19924;-70
2023/09/21 21:35:15;;;;;;;;;;;16.00;99.90;;;;;;8380453;28;19928;-70
2023/09/21 21:39:18;;;;;;;;;;;16.00;99.90;;;;;;8373852;28;19971;-70
2023/09/21 21:43:20;;;;;;;;;;;16.00;99.90;;;;;;8377000;28;20212;-70
2023/09/21 21:47:21;;;;;;;;;;;15.90;99.90;;;;;;8375201;28;19971;-70
2023/09/21 21:51:23;;;;;;;;;;;15.90;99.90;;;;;;8367020;28;19928;-70
2023/09/21 21:55:25;;;;;;;;;;;15.90;99.90;;;;;;8368681;28;20299;-70
2023/09/21 21:59:27;;;;;;;;;;;15.90;99.90;;;;;;8365827;28;20323;-71
2023/09/21 22:03:28;;;;;;;;;;;15.90;99.90;;;;;;8368040;28;20320;-70
2023/09/21 22:12:34;;;;;;;;;;;15.80;99.90;;;;;;8380733;28;19974;-70
2023/09/21 22:16:36;;;;;;;;;;;15.80;99.90;;;;;;8374310;28;19928;-70
2023/09/21 22:25:49;;;;;;;;;;;15.80;99.90;;;;;;8370985;28;20316;-70
2023/09/21 22:29:52;;;;;;;;;;;15.80;99.90;;;;;;8376568;28;19929;-70
2023/09/21 22:33:53;;;;;;;;;;;15.70;99.90;;;;;;8380157;28;19931;-70
2023/09/21 22:37:55;;;;;;;;;;;15.70;99.90;;;;;;8374195;28;19925;-71
2023/09/21 22:42:13;;;;;;;;;;;15.70;99.90;;;;;;8374598;28;19924;-70
2023/09/21 22:46:15;;;;;;;;;;;15.70;99.90;;;;;;8361289;28;19925;-71
2023/09/21 22:50:19;;;;;;;;;;;15.60;99.90;;;;;;8379059;28;20482;-71
2023/09/21 22:54:21;;;;;;;;;;;15.60;99.90;;;;;;8375537;28;19931;-70
2023/09/21 22:58:22;;;;;;;;;;;15.50;99.90;;;;;;8364772;28;19925;-71
2023/09/21 23:02:25;;;;;;;;;;;15.50;99.90;;;;;;8376303;28;19943;-71
2023/09/21 23:06:27;;;;;;;;;;;15.50;99.90;;;;;;8381638;28;19928;-70
2023/09/21 23:10:31;;;;;;;;;;;15.50;99.90;;;;;;8384421;28;19932;-70
2023/09/21 23:14:32;;;;;;;;;;;15.50;99.90;;;;;;8367187;28;19928;-70
2023/09/21 23:18:35;;;;;;;;;;;15.50;99.90;;;;;;8382400;28;19924;-71
2023/09/21 23:22:36;;;;;;;;;;;15.50;99.90;;;;;;8382672;28;19932;-70
2023/09/21 23:42:02;;;;;;;;;;;15.30;99.90;;;;;;8372038;28;19932;-70
2023/09/21 23:46:09;;;;;;;;;;;15.30;99.90;;;;;;8378216;28;19924;-71
2023/09/21 23:50:11;;;;;;;;;;;15.30;99.90;;;;;;8377777;28;19982;-71
2023/09/21 23:54:14;;;;;;;;;;;15.20;99.90;;;;;;8376422;28;19931;-71
2023/09/21 23:58:16;;;;;;;;;;;15.20;99.90;;;;;;8372593;28;19924;-70
